sensor_id;sensor_type;location;lat;lon;timestamp;P1;durP1;ratioP1;P2;durP2;ratioP2
23099;SDS011;53791;50.696;4.396;2023-04-01T00:00:58;1.70;;;1.22;;
23099;SDS011;53791;50.696;4.396;2023-04-01T00:03:28;1.70;;;1.10;;
23099;SDS011;53791;50.696;4.396;2023-04-01T00:05:57;2.10;;;1.60;;
23099;SDS011;53791;50.696;4.396;2023-04-01T00:08:26;2.77;;;1.55;;
23099;SDS011;53791;50.696;4.396;2023-04-01T00:10:56;2.08;;;1.25;;
23099;SDS011;53791;50.696;4.396;2023-04-01T00:13:34;1.62;;;1.10;;
23099;SDS011;53791;50.696;4.396;2023-04-01T00:16:03;2.75;;;1.65;;
23099;SDS011;53791;50.696;4.396;2023-04-01T00:18:43;1.75;;;1.12;;
23099;SDS011;53791;50.696;4.396;2023-04-01T00:21:13;1.42;;;1.00;;
23099;SDS011;53791;50.696;4.396;2023-04-01T00:23:40;1.50;;;1.00;;
23099;SDS011;53791;50.696;4.396;2023-04-01T00:26:09;2.12;;;1.45;;
23099;SDS011;53791;50.696;4.396;2023-04-01T00:28:37;2.50;;;1.55;;
23099;SDS011;53791;50.696;4.396;2023-04-01T00:31:10;1.50;;;0.90;;
23099;SDS011;53791;50.696;4.396;2023-04-01T00:33:39;1.50;;;0.90;;
23099;SDS011;53791;50.696;4.396;2023-04-01T00:36:17;1.90;;;1.20;;
23099;SDS011;53791;50.696;4.396;2023-04-01T00:39:02;4.55;;;1.10;;
23099;SDS011;53791;50.696;4.396;2023-04-01T00:41:30;1.50;;;0.90;;
23099;SDS011;53791;50.696;4.396;2023-04-01T00:46:56;7.25;;;1.57;;
23099;SDS011;53791;50.696;4.396;2023-04-01T00:49:32;2.52;;;1.35;;
23099;SDS011;53791;50.696;4.396;2023-04-01T00:52:01;1.60;;;0.98;;
23099;SDS011;53791;50.696;4.396;2023-04-01T00:54:32;3.12;;;1.40;;
23099;SDS011;53791;50.696;4.396;2023-04-01T00:57:05;1.50;;;0.90;;
23099;SDS011;53791;50.696;4.396;2023-04-01T00:59:48;1.60;;;0.93;;
23099;SDS011;53791;50.696;4.396;2023-04-01T01:02:18;1.50;;;0.80;;
23099;SDS011;53791;50.696;4.396;2023-04-01T01:04:46;1.50;;;0.80;;
23099;SDS011;53791;50.696;4.396;2023-04-01T01:07:20;1.98;;;1.10;;
23099;SDS011;53791;50.696;4.396;2023-04-01T01:10:14;1.40;;;0.80;;
23099;SDS011;53791;50.696;4.396;2023-04-01T01:16:06;1.40;;;0.80;;
23099;SDS011;53791;50.696;4.396;2023-04-01T01:18:53;1.60;;;0.90;;
23099;SDS011;53791;50.696;4.396;2023-04-01T01:29:45;1.82;;;0.90;;
23099;SDS011;53791;50.696;4.396;2023-04-01T01:38:26;1.45;;;0.82;;
23099;SDS011;53791;50.696;4.396;2023-04-01T01:40:55;1.50;;;1.00;;
23099;SDS011;53791;50.696;4.396;2023-04-01T01:43:40;3.90;;;1.62;;
23099;SDS011;53791;50.696;4.396;2023-04-01T01:46:21;1.57;;;1.00;;
23099;SDS011;53791;50.696;4.396;2023-04-01T01:49:17;1.55;;;0.93;;
23099;SDS011;53791;50.696;4.396;2023-04-01T01:51:49;1.50;;;0.90;;
23099;SDS011;53791;50.696;4.396;2023-04-01T01:54:17;1.50;;;0.80;;
23099;SDS011;53791;50.696;4.396;2023-04-01T01:56:51;2.40;;;1.32;;
23099;SDS011;53791;50.696;4.396;2023-04-01T01:59:19;1.60;;;1.02;;
23099;SDS011;53791;50.696;4.396;2023-04-01T02:01:51;1.67;;;1.05;;
23099;SDS011;53791;50.696;4.396;2023-04-01T02:04:28;1.50;;;0.95;;
23099;SDS011;53791;50.696;4.396;2023-04-01T02:07:07;1.47;;;0.90;;
23099;SDS011;53791;50.696;4.396;2023-04-01T02:09:58;6.53;;;1.32;;
23099;SDS011;53791;50.696;4.396;2023-04-01T02:12:26;1.62;;;1.15;;
23099;SDS011;53791;50.696;4.396;2023-04-01T02:15:00;1.60;;;1.00;;
23099;SDS011;53791;50.696;4.396;2023-04-01T02:17:49;1.60;;;1.00;;
23099;SDS011;53791;50.696;4.396;2023-04-01T02:20:22;1.77;;;1.05;;
23099;SDS011;53791;50.696;4.396;2023-04-01T02:22:52;1.60;;;1.10;;
23099;SDS011;53791;50.696;4.396;2023-04-01T02:25:26;3.27;;;1.75;;
23099;SDS011;53791;50.696;4.396;2023-04-01T02:28:00;1.70;;;1.20;;
23099;SDS011;53791;50.696;4.396;2023-04-01T02:30:32;1.52;;;1.00;;
23099;SDS011;53791;50.696;4.396;2023-04-01T02:33:04;2.50;;;1.45;;
23099;SDS011;53791;50.696;4.396;2023-04-01T02:35:35;3.70;;;1.37;;
23099;SDS011;53791;50.696;4.396;2023-04-01T02:38:03;6.90;;;1.50;;
23099;SDS011;53791;50.696;4.396;2023-04-01T02:40:48;2.20;;;1.60;;
23099;SDS011;53791;50.696;4.396;2023-04-01T02:43:17;2.58;;;1.72;;
23099;SDS011;53791;50.696;4.396;2023-04-01T02:45:45;2.25;;;1.65;;
23099;SDS011;53791;50.696;4.396;2023-04-01T02:48:13;2.47;;;1.42;;
23099;SDS011;53791;50.696;4.396;2023-04-01T02:50:40;2.60;;;1.42;;
23099;SDS011;53791;50.696;4.396;2023-04-01T02:53:08;1.82;;;1.30;;
23099;SDS011;53791;50.696;4.396;2023-04-01T02:55:35;1.70;;;1.22;;
23099;SDS011;53791;50.696;4.396;2023-04-01T02:58:03;1.57;;;1.07;;
23099;SDS011;53791;50.696;4.396;2023-04-01T03:00:31;1.70;;;1.20;;
23099;SDS011;53791;50.696;4.396;2023-04-01T03:03:00;3.45;;;1.50;;
23099;SDS011;53791;50.696;4.396;2023-04-01T03:05:30;1.80;;;1.20;;
23099;SDS011;53791;50.696;4.396;2023-04-01T03:07:57;2.75;;;1.55;;
23099;SDS011;53791;50.696;4.396;2023-04-01T03:10:24;2.25;;;1.72;;
23099;SDS011;53791;50.696;4.396;2023-04-01T03:12:52;2.40;;;1.65;;
23099;SDS011;53791;50.696;4.396;2023-04-01T03:15:20;3.55;;;1.30;;
23099;SDS011;53791;50.696;4.396;2023-04-01T03:17:47;2.30;;;1.45;;
23099;SDS011;53791;50.696;4.396;2023-04-01T03:20:15;2.20;;;1.35;;
23099;SDS011;53791;50.696;4.396;2023-04-01T03:22:47;3.27;;;2.02;;
23099;SDS011;53791;50.696;4.396;2023-04-01T03:25:17;1.50;;;0.93;;
23099;SDS011;53791;50.696;4.396;2023-04-01T03:27:49;10.70;;;2.58;;
23099;SDS011;53791;50.696;4.396;2023-04-01T03:30:28;1.70;;;1.20;;
23099;SDS011;53791;50.696;4.396;2023-04-01T03:32:59;1.75;;;1.20;;
23099;SDS011;53791;50.696;4.396;2023-04-01T03:35:27;2.77;;;1.67;;
23099;SDS011;53791;50.696;4.396;2023-04-01T03:37:55;1.75;;;1.35;;
23099;SDS011;53791;50.696;4.396;2023-04-01T03:40:23;2.17;;;1.40;;
23099;SDS011;53791;50.696;4.396;2023-04-01T03:42:52;2.67;;;1.62;;
23099;SDS011;53791;50.696;4.396;2023-04-01T03:45:21;1.82;;;1.45;;
23099;SDS011;53791;50.696;4.396;2023-04-01T03:47:52;1.90;;;1.22;;
23099;SDS011;53791;50.696;4.396;2023-04-01T03:50:20;1.60;;;1.07;;
23099;SDS011;53791;50.696;4.396;2023-04-01T03:52:48;2.67;;;1.90;;
23099;SDS011;53791;50.696;4.396;2023-04-01T03:55:22;5.25;;;1.50;;
23099;SDS011;53791;50.696;4.396;2023-04-01T03:57:49;3.00;;;1.37;;
23099;SDS011;53791;50.696;4.396;2023-04-01T04:00:17;2.00;;;1.40;;
23099;SDS011;53791;50.696;4.396;2023-04-01T04:02:44;2.95;;;1.92;;
23099;SDS011;53791;50.696;4.396;2023-04-01T04:05:12;3.00;;;1.80;;
23099;SDS011;53791;50.696;4.396;2023-04-01T04:07:41;2.90;;;1.82;;
23099;SDS011;53791;50.696;4.396;2023-04-01T04:10:11;2.45;;;1.40;;
23099;SDS011;53791;50.696;4.396;2023-04-01T04:12:38;2.40;;;1.82;;
23099;SDS011;53791;50.696;4.396;2023-04-01T04:15:06;12.93;;;2.95;;
23099;SDS011;53791;50.696;4.396;2023-04-01T04:17:35;1.60;;;1.10;;
23099;SDS011;53791;50.696;4.396;2023-04-01T04:20:02;4.45;;;2.05;;
23099;SDS011;53791;50.696;4.396;2023-04-01T04:22:35;2.95;;;1.75;;
23099;SDS011;53791;50.696;4.396;2023-04-01T04:25:03;5.90;;;1.65;;
23099;SDS011;53791;50.696;4.396;2023-04-01T04:27:32;2.00;;;1.45;;
23099;SDS011;53791;50.696;4.396;2023-04-01T04:30:04;9.18;;;1.77;;
23099;SDS011;53791;50.696;4.396;2023-04-01T04:32:34;2.10;;;1.40;;
23099;SDS011;53791;50.696;4.396;2023-04-01T04:35:06;3.67;;;2.60;;
23099;SDS011;53791;50.696;4.396;2023-04-01T04:37:42;1.92;;;1.57;;
23099;SDS011;53791;50.696;4.396;2023-04-01T04:40:12;2.90;;;2.00;;
23099;SDS011;53791;50.696;4.396;2023-04-01T04:42:42;5.60;;;2.52;;
23099;SDS011;53791;50.696;4.396;2023-04-01T04:45:19;1.90;;;1.30;;
23099;SDS011;53791;50.696;4.396;2023-04-01T04:47:47;2.25;;;1.50;;
23099;SDS011;53791;50.696;4.396;2023-04-01T04:50:21;2.87;;;1.60;;
23099;SDS011;53791;50.696;4.396;2023-04-01T04:52:54;1.75;;;1.32;;
23099;SDS011;53791;50.696;4.396;2023-04-01T04:55:21;1.92;;;1.45;;
23099;SDS011;53791;50.696;4.396;2023-04-01T04:57:51;1.60;;;1.20;;
23099;SDS011;53791;50.696;4.396;2023-04-01T05:00:20;2.17;;;1.40;;
23099;SDS011;53791;50.696;4.396;2023-04-01T05:02:48;1.95;;;1.30;;
23099;SDS011;53791;50.696;4.396;2023-04-01T05:05:17;2.42;;;1.35;;
23099;SDS011;53791;50.696;4.396;2023-04-01T05:07:50;1.80;;;1.15;;
23099;SDS011;53791;50.696;4.396;2023-04-01T05:10:20;1.92;;;1.32;;
23099;SDS011;53791;50.696;4.396;2023-04-01T05:13:02;1.80;;;1.30;;
23099;SDS011;53791;50.696;4.396;2023-04-01T05:15:38;2.52;;;1.87;;
23099;SDS011;53791;50.696;4.396;2023-04-01T05:18:12;1.60;;;1.10;;
23099;SDS011;53791;50.696;4.396;2023-04-01T05:20:50;1.75;;;1.20;;
23099;SDS011;53791;50.696;4.396;2023-04-01T05:23:59;1.70;;;1.17;;
23099;SDS011;53791;50.696;4.396;2023-04-01T05:26:32;2.62;;;1.50;;
23099;SDS011;53791;50.696;4.396;2023-04-01T05:29:09;2.67;;;1.80;;
23099;SDS011;53791;50.696;4.396;2023-04-01T05:32:16;2.33;;;1.45;;
23099;SDS011;53791;50.696;4.396;2023-04-01T05:34:52;2.30;;;1.70;;
23099;SDS011;53791;50.696;4.396;2023-04-01T05:37:23;1.70;;;1.12;;
23099;SDS011;53791;50.696;4.396;2023-04-01T05:39:53;2.55;;;1.32;;
23099;SDS011;53791;50.696;4.396;2023-04-01T05:42:21;2.12;;;1.52;;
23099;SDS011;53791;50.696;4.396;2023-04-01T05:44:51;3.37;;;1.85;;
23099;SDS011;53791;50.696;4.396;2023-04-01T05:47:19;2.33;;;1.50;;
23099;SDS011;53791;50.696;4.396;2023-04-01T05:49:46;1.90;;;1.30;;
23099;SDS011;53791;50.696;4.396;2023-04-01T05:52:23;2.42;;;1.82;;
23099;SDS011;53791;50.696;4.396;2023-04-01T05:54:56;1.90;;;1.45;;
23099;SDS011;53791;50.696;4.396;2023-04-01T05:57:46;1.90;;;1.40;;
23099;SDS011;53791;50.696;4.396;2023-04-01T06:00:15;1.60;;;1.00;;
23099;SDS011;53791;50.696;4.396;2023-04-01T06:02:45;1.90;;;1.52;;
23099;SDS011;53791;50.696;4.396;2023-04-01T06:05:25;1.50;;;1.00;;
23099;SDS011;53791;50.696;4.396;2023-04-01T06:08:13;3.52;;;1.65;;
23099;SDS011;53791;50.696;4.396;2023-04-01T06:11:04;3.42;;;1.35;;
23099;SDS011;53791;50.696;4.396;2023-04-01T06:17:08;4.97;;;2.22;;
23099;SDS011;53791;50.696;4.396;2023-04-01T06:25:54;2.33;;;1.65;;
23099;SDS011;53791;50.696;4.396;2023-04-01T06:28:07;2.60;;;1.70;;
23099;SDS011;53791;50.696;4.396;2023-04-01T06:31:04;2.25;;;1.70;;
23099;SDS011;53791;50.696;4.396;2023-04-01T06:49:20;2.08;;;1.60;;
23099;SDS011;53791;50.696;4.396;2023-04-01T06:52:02;1.95;;;1.40;;
23099;SDS011;53791;50.696;4.396;2023-04-01T06:54:55;3.15;;;1.42;;
23099;SDS011;53791;50.696;4.396;2023-04-01T06:57:29;2.05;;;1.47;;
23099;SDS011;53791;50.696;4.396;2023-04-01T07:00:15;1.70;;;1.25;;
23099;SDS011;53791;50.696;4.396;2023-04-01T07:02:53;2.10;;;1.30;;
23099;SDS011;53791;50.696;4.396;2023-04-01T07:05:27;4.33;;;1.85;;
23099;SDS011;53791;50.696;4.396;2023-04-01T07:07:59;1.82;;;1.27;;
23099;SDS011;53791;50.696;4.396;2023-04-01T07:19:24;2.20;;;1.72;;
23099;SDS011;53791;50.696;4.396;2023-04-01T07:21:58;1.70;;;1.20;;
23099;SDS011;53791;50.696;4.396;2023-04-01T07:24:27;3.50;;;1.95;;
23099;SDS011;53791;50.696;4.396;2023-04-01T07:27:01;1.60;;;1.00;;
23099;SDS011;53791;50.696;4.396;2023-04-01T07:29:28;2.10;;;1.70;;
23099;SDS011;53791;50.696;4.396;2023-04-01T07:32:18;2.40;;;1.62;;
23099;SDS011;53791;50.696;4.396;2023-04-01T07:35:02;3.98;;;1.85;;
23099;SDS011;53791;50.696;4.396;2023-04-01T07:37:41;2.20;;;1.25;;
23099;SDS011;53791;50.696;4.396;2023-04-01T07:40:18;1.60;;;1.00;;
23099;SDS011;53791;50.696;4.396;2023-04-01T07:43:14;2.35;;;1.02;;
23099;SDS011;53791;50.696;4.396;2023-04-01T07:45:45;1.57;;;1.10;;
23099;SDS011;53791;50.696;4.396;2023-04-01T07:48:30;1.50;;;0.90;;
23099;SDS011;53791;50.696;4.396;2023-04-01T07:51:07;1.65;;;1.07;;
23099;SDS011;53791;50.696;4.396;2023-04-01T07:53:46;1.55;;;0.93;;
23099;SDS011;53791;50.696;4.396;2023-04-01T07:56:21;2.85;;;1.75;;
23099;SDS011;53791;50.696;4.396;2023-04-01T07:58:57;1.95;;;1.20;;
23099;SDS011;53791;50.696;4.396;2023-04-01T08:01:49;2.50;;;1.37;;
23099;SDS011;53791;50.696;4.396;2023-04-01T08:04:23;2.50;;;1.30;;
23099;SDS011;53791;50.696;4.396;2023-04-01T08:09:55;1.70;;;1.10;;
23099;SDS011;53791;50.696;4.396;2023-04-01T08:15:17;1.42;;;0.90;;
23099;SDS011;53791;50.696;4.396;2023-04-01T08:18:03;2.00;;;1.40;;
23099;SDS011;53791;50.696;4.396;2023-04-01T08:20:37;3.75;;;1.87;;
23099;SDS011;53791;50.696;4.396;2023-04-01T08:23:23;1.40;;;0.90;;
23099;SDS011;53791;50.696;4.396;2023-04-01T08:26:10;1.70;;;1.20;;
23099;SDS011;53791;50.696;4.396;2023-04-01T08:29:00;1.82;;;0.95;;
23099;SDS011;53791;50.696;4.396;2023-04-01T08:31:37;1.92;;;1.30;;
23099;SDS011;53791;50.696;4.396;2023-04-01T08:34:05;1.60;;;1.00;;
23099;SDS011;53791;50.696;4.396;2023-04-01T08:36:41;1.60;;;1.05;;
23099;SDS011;53791;50.696;4.396;2023-04-01T08:39:12;2.00;;;1.00;;
23099;SDS011;53791;50.696;4.396;2023-04-01T08:56:06;1.80;;;1.15;;
23099;SDS011;53791;50.696;4.396;2023-04-01T08:59:12;1.42;;;0.85;;
23099;SDS011;53791;50.696;4.396;2023-04-01T09:04:51;1.40;;;0.80;;
23099;SDS011;53791;50.696;4.396;2023-04-01T09:07:31;1.90;;;1.25;;
23099;SDS011;53791;50.696;4.396;2023-04-01T09:24:25;1.60;;;1.05;;
23099;SDS011;53791;50.696;4.396;2023-04-01T09:27:02;1.77;;;1.10;;
23099;SDS011;53791;50.696;4.396;2023-04-01T09:35:23;1.42;;;0.80;;
23099;SDS011;53791;50.696;4.396;2023-04-01T09:49:37;1.75;;;1.17;;
23099;SDS011;53791;50.696;4.396;2023-04-01T09:52:36;1.50;;;0.88;;
23099;SDS011;53791;50.696;4.396;2023-04-01T09:55:38;2.95;;;1.20;;
23099;SDS011;53791;50.696;4.396;2023-04-01T10:04:00;1.45;;;0.85;;
23099;SDS011;53791;50.696;4.396;2023-04-01T10:09:46;1.50;;;0.90;;
23099;SDS011;53791;50.696;4.396;2023-04-01T10:12:44;2.62;;;1.60;;
23099;SDS011;53791;50.696;4.396;2023-04-01T10:18:12;1.40;;;0.75;;
23099;SDS011;53791;50.696;4.396;2023-04-01T10:20:55;1.60;;;1.00;;
23099;SDS011;53791;50.696;4.396;2023-04-01T10:26:31;1.70;;;1.00;;
23099;SDS011;53791;50.696;4.396;2023-04-01T10:37:40;2.00;;;1.22;;
23099;SDS011;53791;50.696;4.396;2023-04-01T10:40:26;1.77;;;1.12;;
23099;SDS011;53791;50.696;4.396;2023-04-01T10:45:57;1.55;;;0.85;;
23099;SDS011;53791;50.696;4.396;2023-04-01T10:48:36;2.25;;;1.37;;
23099;SDS011;53791;50.696;4.396;2023-04-01T10:53:40;4.00;;;1.37;;
23099;SDS011;53791;50.696;4.396;2023-04-01T10:56:32;1.62;;;1.07;;
23099;SDS011;53791;50.696;4.396;2023-04-01T11:11:02;2.20;;;1.42;;
23099;SDS011;53791;50.696;4.396;2023-04-01T11:27:59;1.57;;;1.07;;
23099;SDS011;53791;50.696;4.396;2023-04-01T11:30:40;2.20;;;1.10;;
23099;SDS011;53791;50.696;4.396;2023-04-01T11:39:00;1.90;;;1.32;;
23099;SDS011;53791;50.696;4.396;2023-04-01T11:44:33;1.90;;;1.32;;
23099;SDS011;53791;50.696;4.396;2023-04-01T11:47:10;2.22;;;1.60;;
23099;SDS011;53791;50.696;4.396;2023-04-01T11:52:44;1.85;;;1.30;;
23099;SDS011;53791;50.696;4.396;2023-04-01T11:55:32;2.08;;;1.35;;
23099;SDS011;53791;50.696;4.396;2023-04-01T11:58:07;1.72;;;1.30;;
23099;SDS011;53791;50.696;4.396;2023-04-01T12:00:49;4.85;;;2.17;;
23099;SDS011;53791;50.696;4.396;2023-04-01T12:03:51;1.60;;;1.10;;
23099;SDS011;53791;50.696;4.396;2023-04-01T12:06:34;1.57;;;1.10;;
23099;SDS011;53791;50.696;4.396;2023-04-01T12:23:10;1.60;;;1.00;;
23099;SDS011;53791;50.696;4.396;2023-04-01T12:29:14;2.35;;;1.20;;
23099;SDS011;53791;50.696;4.396;2023-04-01T12:35:10;1.67;;;1.12;;
23099;SDS011;53791;50.696;4.396;2023-04-01T12:38:15;1.92;;;1.30;;
23099;SDS011;53791;50.696;4.396;2023-04-01T12:49:34;1.80;;;1.30;;
23099;SDS011;53791;50.696;4.396;2023-04-01T12:52:11;1.80;;;1.30;;
23099;SDS011;53791;50.696;4.396;2023-04-01T12:57:33;1.75;;;1.17;;
23099;SDS011;53791;50.696;4.396;2023-04-01T13:00:25;1.70;;;1.30;;
23099;SDS011;53791;50.696;4.396;2023-04-01T13:12:00;1.98;;;1.57;;
23099;SDS011;53791;50.696;4.396;2023-04-01T13:17:31;1.60;;;1.10;;
23099;SDS011;53791;50.696;4.396;2023-04-01T13:20:23;2.15;;;1.40;;
23099;SDS011;53791;50.696;4.396;2023-04-01T13:28:30;6.60;;;1.98;;
23099;SDS011;53791;50.696;4.396;2023-04-01T13:31:01;2.47;;;2.27;;
23099;SDS011;53791;50.696;4.396;2023-04-01T13:33:44;1.80;;;1.25;;
23099;SDS011;53791;50.696;4.396;2023-04-01T13:36:31;1.90;;;1.47;;
23099;SDS011;53791;50.696;4.396;2023-04-01T13:39:02;2.00;;;1.50;;
23099;SDS011;53791;50.696;4.396;2023-04-01T13:41:50;2.80;;;1.82;;
23099;SDS011;53791;50.696;4.396;2023-04-01T13:55:48;1.90;;;1.57;;
23099;SDS011;53791;50.696;4.396;2023-04-01T14:01:32;1.90;;;1.42;;
23099;SDS011;53791;50.696;4.396;2023-04-01T14:04:04;1.80;;;1.40;;
23099;SDS011;53791;50.696;4.396;2023-04-01T14:06:57;1.90;;;1.40;;
23099;SDS011;53791;50.696;4.396;2023-04-01T14:09:42;2.52;;;1.72;;
23099;SDS011;53791;50.696;4.396;2023-04-01T14:18:13;1.90;;;1.50;;
23099;SDS011;53791;50.696;4.396;2023-04-01T14:21:07;2.52;;;1.85;;
23099;SDS011;53791;50.696;4.396;2023-04-01T14:23:59;2.12;;;1.65;;
23099;SDS011;53791;50.696;4.396;2023-04-01T14:26:31;1.90;;;1.50;;
23099;SDS011;53791;50.696;4.396;2023-04-01T14:29:34;1.80;;;1.30;;
23099;SDS011;53791;50.696;4.396;2023-04-01T14:32:11;2.10;;;1.70;;
23099;SDS011;53791;50.696;4.396;2023-04-01T14:38:05;2.12;;;1.62;;
23099;SDS011;53791;50.696;4.396;2023-04-01T14:40:48;2.02;;;1.45;;
23099;SDS011;53791;50.696;4.396;2023-04-01T14:46:08;1.90;;;1.52;;
23099;SDS011;53791;50.696;4.396;2023-04-01T14:51:32;2.50;;;1.55;;
23099;SDS011;53791;50.696;4.396;2023-04-01T14:56:43;2.10;;;1.60;;
23099;SDS011;53791;50.696;4.396;2023-04-01T15:04:52;2.08;;;1.57;;
23099;SDS011;53791;50.696;4.396;2023-04-01T15:12:49;1.80;;;1.40;;
23099;SDS011;53791;50.696;4.396;2023-04-01T15:15:21;1.70;;;1.30;;
23099;SDS011;53791;50.696;4.396;2023-04-01T15:23:17;1.90;;;1.45;;
23099;SDS011;53791;50.696;4.396;2023-04-01T15:31:25;1.80;;;1.40;;
23099;SDS011;53791;50.696;4.396;2023-04-01T15:37:06;2.12;;;1.77;;
23099;SDS011;53791;50.696;4.396;2023-04-01T15:45:12;1.80;;;1.40;;
23099;SDS011;53791;50.696;4.396;2023-04-01T15:47:45;1.77;;;1.37;;
23099;SDS011;53791;50.696;4.396;2023-04-01T15:56:09;1.60;;;1.10;;
23099;SDS011;53791;50.696;4.396;2023-04-01T15:58:59;2.90;;;1.40;;
23099;SDS011;53791;50.696;4.396;2023-04-01T16:01:44;2.05;;;1.60;;
23099;SDS011;53791;50.696;4.396;2023-04-01T16:04:23;1.80;;;1.30;;
23099;SDS011;53791;50.696;4.396;2023-04-01T16:07:03;1.70;;;1.20;;
23099;SDS011;53791;50.696;4.396;2023-04-01T16:15:20;2.30;;;1.67;;
23099;SDS011;53791;50.696;4.396;2023-04-01T16:17:54;1.70;;;1.30;;
23099;SDS011;53791;50.696;4.396;2023-04-01T16:23:35;2.40;;;1.72;;
23099;SDS011;53791;50.696;4.396;2023-04-01T16:26:23;1.70;;;1.22;;
23099;SDS011;53791;50.696;4.396;2023-04-01T16:28:57;2.17;;;1.57;;
23099;SDS011;53791;50.696;4.396;2023-04-01T16:31:47;2.85;;;1.82;;
23099;SDS011;53791;50.696;4.396;2023-04-01T16:34:26;3.60;;;2.02;;
23099;SDS011;53791;50.696;4.396;2023-04-01T16:37:00;1.80;;;1.30;;
23099;SDS011;53791;50.696;4.396;2023-04-01T16:39:42;1.82;;;1.40;;
23099;SDS011;53791;50.696;4.396;2023-04-01T16:42:22;1.90;;;1.32;;
23099;SDS011;53791;50.696;4.396;2023-04-01T16:47:51;1.80;;;1.40;;
23099;SDS011;53791;50.696;4.396;2023-04-01T16:56:08;1.90;;;1.50;;
23099;SDS011;53791;50.696;4.396;2023-04-01T16:58:42;1.80;;;1.35;;
23099;SDS011;53791;50.696;4.396;2023-04-01T17:15:40;2.10;;;1.67;;
23099;SDS011;53791;50.696;4.396;2023-04-01T17:20:46;2.60;;;1.70;;
23099;SDS011;53791;50.696;4.396;2023-04-01T17:23:34;2.15;;;1.60;;
23099;SDS011;53791;50.696;4.396;2023-04-01T17:26:25;1.80;;;1.40;;
23099;SDS011;53791;50.696;4.396;2023-04-01T17:28:50;1.75;;;1.25;;
23099;SDS011;53791;50.696;4.396;2023-04-01T17:34:00;1.90;;;1.40;;
23099;SDS011;53791;50.696;4.396;2023-04-01T17:36:32;1.67;;;1.17;;
23099;SDS011;53791;50.696;4.396;2023-04-01T17:39:15;1.77;;;1.37;;
23099;SDS011;53791;50.696;4.396;2023-04-01T17:50:13;1.70;;;1.20;;
23099;SDS011;53791;50.696;4.396;2023-04-01T17:52:54;1.80;;;1.30;;
23099;SDS011;53791;50.696;4.396;2023-04-01T18:06:33;1.98;;;1.45;;
23099;SDS011;53791;50.696;4.396;2023-04-01T18:12:15;1.80;;;1.30;;
23099;SDS011;53791;50.696;4.396;2023-04-01T18:14:59;12.33;;;2.08;;
23099;SDS011;53791;50.696;4.396;2023-04-01T18:17:42;3.15;;;1.60;;
23099;SDS011;53791;50.696;4.396;2023-04-01T18:20:24;1.70;;;1.20;;
23099;SDS011;53791;50.696;4.396;2023-04-01T18:22:58;1.67;;;1.20;;
23099;SDS011;53791;50.696;4.396;2023-04-01T18:25:46;1.80;;;1.27;;
23099;SDS011;53791;50.696;4.396;2023-04-01T18:31:06;2.02;;;1.30;;
23099;SDS011;53791;50.696;4.396;2023-04-01T18:39:03;2.98;;;2.72;;
23099;SDS011;53791;50.696;4.396;2023-04-01T18:41:34;1.98;;;1.40;;
23099;SDS011;53791;50.696;4.396;2023-04-01T18:49:59;1.80;;;1.35;;
23099;SDS011;53791;50.696;4.396;2023-04-01T18:52:44;1.70;;;1.30;;
23099;SDS011;53791;50.696;4.396;2023-04-01T18:55:23;2.10;;;1.70;;
23099;SDS011;53791;50.696;4.396;2023-04-01T18:57:51;2.00;;;1.50;;
23099;SDS011;53791;50.696;4.396;2023-04-01T19:00:25;1.90;;;1.50;;
23099;SDS011;53791;50.696;4.396;2023-04-01T19:03:02;1.87;;;1.30;;
23099;SDS011;53791;50.696;4.396;2023-04-01T19:05:42;1.80;;;1.40;;
23099;SDS011;53791;50.696;4.396;2023-04-01T19:08:19;2.30;;;1.60;;
23099;SDS011;53791;50.696;4.396;2023-04-01T19:13:44;1.80;;;1.40;;
23099;SDS011;53791;50.696;4.396;2023-04-01T19:19:07;2.10;;;1.55;;
23099;SDS011;53791;50.696;4.396;2023-04-01T19:21:41;1.80;;;1.47;;
23099;SDS011;53791;50.696;4.396;2023-04-01T19:24:31;2.20;;;1.70;;
23099;SDS011;53791;50.696;4.396;2023-04-01T19:27:18;1.90;;;1.60;;
23099;SDS011;53791;50.696;4.396;2023-04-01T19:30:02;2.00;;;1.70;;
23099;SDS011;53791;50.696;4.396;2023-04-01T19:32:45;2.00;;;1.70;;
23099;SDS011;53791;50.696;4.396;2023-04-01T19:35:26;1.98;;;1.62;;
23099;SDS011;53791;50.696;4.396;2023-04-01T19:41:14;2.40;;;1.98;;
23099;SDS011;53791;50.696;4.396;2023-04-01T19:43:54;2.05;;;1.67;;
23099;SDS011;53791;50.696;4.396;2023-04-01T19:49:29;2.75;;;1.92;;
23099;SDS011;53791;50.696;4.396;2023-04-01T19:51:57;3.80;;;2.80;;
23099;SDS011;53791;50.696;4.396;2023-04-01T19:54:40;2.37;;;2.17;;
23099;SDS011;53791;50.696;4.396;2023-04-01T19:57:46;2.83;;;2.15;;
23099;SDS011;53791;50.696;4.396;2023-04-01T20:00:05;3.05;;;2.35;;
23099;SDS011;53791;50.696;4.396;2023-04-01T20:02:42;2.40;;;2.17;;
23099;SDS011;53791;50.696;4.396;2023-04-01T20:10:52;2.60;;;2.05;;
23099;SDS011;53791;50.696;4.396;2023-04-01T20:13:25;5.10;;;2.77;;
23099;SDS011;53791;50.696;4.396;2023-04-01T20:16:08;3.27;;;2.65;;
23099;SDS011;53791;50.696;4.396;2023-04-01T20:18:49;2.62;;;2.08;;
23099;SDS011;53791;50.696;4.396;2023-04-01T20:21:27;3.95;;;2.45;;
23099;SDS011;53791;50.696;4.396;2023-04-01T20:26:26;3.75;;;2.02;;
23099;SDS011;53791;50.696;4.396;2023-04-01T20:29:18;3.45;;;2.40;;
23099;SDS011;53791;50.696;4.396;2023-04-01T20:31:42;2.33;;;2.05;;
23099;SDS011;53791;50.696;4.396;2023-04-01T20:34:26;12.25;;;3.83;;
23099;SDS011;53791;50.696;4.396;2023-04-01T20:37:06;2.45;;;2.17;;
23099;SDS011;53791;50.696;4.396;2023-04-01T20:42:29;2.65;;;2.27;;
23099;SDS011;53791;50.696;4.396;2023-04-01T20:45:06;2.17;;;1.98;;
23099;SDS011;53791;50.696;4.396;2023-04-01T20:53:58;3.27;;;2.92;;
23099;SDS011;53791;50.696;4.396;2023-04-01T20:56:40;2.52;;;2.33;;
23099;SDS011;53791;50.696;4.396;2023-04-01T21:07:58;3.22;;;2.50;;
23099;SDS011;53791;50.696;4.396;2023-04-01T21:10:33;4.20;;;3.22;;
23099;SDS011;53791;50.696;4.396;2023-04-01T21:16:03;3.02;;;2.72;;
23099;SDS011;53791;50.696;4.396;2023-04-01T21:18:31;3.52;;;3.00;;
23099;SDS011;53791;50.696;4.396;2023-04-01T21:23:47;4.62;;;3.22;;
23099;SDS011;53791;50.696;4.396;2023-04-01T21:26:12;2.83;;;2.55;;
23099;SDS011;53791;50.696;4.396;2023-04-01T21:28:52;2.67;;;2.27;;
23099;SDS011;53791;50.696;4.396;2023-04-01T21:37:17;3.10;;;2.65;;
23099;SDS011;53791;50.696;4.396;2023-04-01T21:42:56;2.40;;;2.20;;
23099;SDS011;53791;50.696;4.396;2023-04-01T21:45:37;2.40;;;2.20;;
23099;SDS011;53791;50.696;4.396;2023-04-01T21:48:29;5.08;;;3.35;;
23099;SDS011;53791;50.696;4.396;2023-04-01T21:59:33;2.75;;;2.50;;
23099;SDS011;53791;50.696;4.396;2023-04-01T22:07:52;3.17;;;2.60;;
23099;SDS011;53791;50.696;4.396;2023-04-01T22:13:11;3.00;;;2.70;;
23099;SDS011;53791;50.696;4.396;2023-04-01T22:15:54;3.15;;;2.83;;
23099;SDS011;53791;50.696;4.396;2023-04-01T22:18:20;3.25;;;2.60;;
23099;SDS011;53791;50.696;4.396;2023-04-01T22:20:56;4.72;;;2.52;;
23099;SDS011;53791;50.696;4.396;2023-04-01T22:23:28;4.08;;;2.90;;
23099;SDS011;53791;50.696;4.396;2023-04-01T22:26:26;3.25;;;2.72;;
23099;SDS011;53791;50.696;4.396;2023-04-01T22:29:00;2.95;;;2.60;;
23099;SDS011;53791;50.696;4.396;2023-04-01T22:31:39;3.25;;;2.50;;
23099;SDS011;53791;50.696;4.396;2023-04-01T22:36:59;4.72;;;2.95;;
23099;SDS011;53791;50.696;4.396;2023-04-01T22:39:33;2.60;;;2.40;;
23099;SDS011;53791;50.696;4.396;2023-04-01T22:42:09;2.20;;;2.00;;
23099;SDS011;53791;50.696;4.396;2023-04-01T22:47:42;2.70;;;2.00;;
23099;SDS011;53791;50.696;4.396;2023-04-01T22:52:47;2.05;;;1.70;;
23099;SDS011;53791;50.696;4.396;2023-04-01T22:55:29;3.22;;;2.70;;
23099;SDS011;53791;50.696;4.396;2023-04-01T22:57:58;5.65;;;2.98;;
23099;SDS011;53791;50.696;4.396;2023-04-01T23:00:38;3.00;;;2.35;;
23099;SDS011;53791;50.696;4.396;2023-04-01T23:05:55;2.15;;;1.87;;
23099;SDS011;53791;50.696;4.396;2023-04-01T23:08:46;2.33;;;2.12;;
23099;SDS011;53791;50.696;4.396;2023-04-01T23:11:19;2.62;;;2.20;;